createdAt,value
2017-12-27T00:00:18.601Z,0
2017-12-27T00:01:18.070Z,0
2017-12-27T00:02:18.574Z,0
2017-12-27T00:03:18.553Z,0
2017-12-27T00:04:18.034Z,0
2017-12-27T00:05:18.525Z,0
2017-12-27T00:06:18.507Z,0
2017-12-27T00:07:18.505Z,0
2017-12-27T00:08:18.477Z,0
2017-12-27T00:09:18.474Z,0
2017-12-27T00:10:18.478Z,0
2017-12-27T00:11:18.444Z,0
2017-12-27T00:12:18.428Z,0
2017-12-27T00:13:18.162Z,0
2017-12-27T00:14:18.145Z,0
2017-12-27T00:15:18.149Z,0
2017-12-27T00:16:18.372Z,0
2017-12-27T00:17:17.838Z,0
2017-12-27T00:18:18.354Z,0
2017-12-27T00:19:18.326Z,0
2017-12-27T00:20:18.314Z,0
2017-12-27T00:21:18.350Z,0
2017-12-27T00:22:18.278Z,0
2017-12-27T00:23:18.019Z,0
2017-12-27T00:24:18.256Z,0
2017-12-27T00:25:18.243Z,0
2017-12-27T00:26:17.708Z,0
2017-12-27T00:27:17.965Z,0
2017-12-27T00:28:18.234Z,0
2017-12-27T00:29:18.191Z,0
2017-12-27T00:30:17.915Z,0
2017-12-27T00:31:17.894Z,0
2017-12-27T00:32:18.144Z,0
2017-12-27T00:33:18.141Z,0
2017-12-27T00:34:18.101Z,0
2017-12-27T00:35:17.859Z,0
2017-12-27T00:36:18.081Z,0
2017-12-27T00:37:17.806Z,0
2017-12-27T00:38:18.058Z,0
2017-12-27T00:39:18.023Z,0
2017-12-27T00:40:17.775Z,0
2017-12-27T00:41:17.999Z,0
2017-12-27T00:42:17.993Z,0
2017-12-27T00:43:17.472Z,0
2017-12-27T00:44:17.449Z,0
2017-12-27T00:45:17.954Z,0
2017-12-27T00:46:17.685Z,0
2017-12-27T00:47:17.953Z,0
2017-12-27T00:48:17.667Z,0
2017-12-27T00:49:17.885Z,0
2017-12-27T00:50:17.365Z,0
2017-12-27T00:51:17.872Z,0
2017-12-27T00:52:17.574Z,0
2017-12-27T00:53:17.595Z,0
2017-12-27T00:54:17.299Z,0
2017-12-27T00:55:17.532Z,0
2017-12-27T00:56:17.011Z,0
2017-12-27T00:57:17.511Z,0
2017-12-27T00:58:17.743Z,0
2017-12-27T00:59:17.763Z,0
2017-12-27T01:00:17.724Z,0
2017-12-27T01:01:17.448Z,0
2017-12-27T01:02:17.445Z,0
2017-12-27T01:03:17.683Z,0
2017-12-27T01:04:17.698Z,0
2017-12-27T01:05:17.139Z,0
2017-12-27T01:06:17.621Z,0
2017-12-27T01:07:17.365Z,0
2017-12-27T01:08:17.335Z,0
2017-12-27T01:09:17.369Z,0
2017-12-27T01:10:17.618Z,0
2017-12-27T01:11:17.330Z,0
2017-12-27T01:12:17.548Z,0
2017-12-27T01:13:17.554Z,0
2017-12-27T01:14:17.291Z,0
2017-12-27T01:15:17.518Z,0
2017-12-27T01:16:17.225Z,0
2017-12-27T01:17:17.207Z,0
2017-12-27T01:18:17.457Z,0
2017-12-27T01:19:17.448Z,0
2017-12-27T01:20:17.424Z,0
2017-12-27T01:21:17.424Z,0
2017-12-27T01:22:17.406Z,0
2017-12-27T01:23:17.397Z,0
2017-12-27T01:24:17.384Z,0
2017-12-27T01:25:17.342Z,0
2017-12-27T01:26:17.085Z,0
2017-12-27T01:27:17.320Z,0
2017-12-27T01:28:17.085Z,0
2017-12-27T01:29:17.038Z,0
2017-12-27T01:30:17.276Z,0
2017-12-27T01:31:16.781Z,0
2017-12-27T01:32:17.244Z,0
2017-12-27T01:33:17.249Z,0
2017-12-27T01:34:17.228Z,0
2017-12-27T01:35:17.200Z,0
2017-12-27T01:36:16.963Z,0
2017-12-27T01:37:17.172Z,0
2017-12-27T01:38:17.151Z,0
2017-12-27T01:39:16.385Z,0
2017-12-27T01:40:17.152Z,0
2017-12-27T01:41:16.858Z,0
2017-12-27T01:42:16.830Z,0
2017-12-27T01:43:16.588Z,0
2017-12-27T01:44:16.810Z,0
2017-12-27T01:45:17.061Z,0
2017-12-27T01:46:17.039Z,0
2017-12-27T01:47:17.027Z,0
2017-12-27T01:48:17.025Z,0
2017-12-27T01:49:17.021Z,0
2017-12-27T01:50:16.728Z,0
2017-12-27T01:51:16.973Z,0
2017-12-27T01:52:16.946Z,0
2017-12-27T01:53:16.942Z,0
2017-12-27T01:54:16.709Z,0
2017-12-27T01:55:16.644Z,0
2017-12-27T01:56:16.637Z,0
2017-12-27T01:57:16.604Z,0
2017-12-27T01:58:16.860Z,0
2017-12-27T01:59:16.843Z,0
2017-12-27T02:00:16.832Z,0
2017-12-27T02:01:16.562Z,0
2017-12-27T02:02:16.814Z,0
2017-12-27T02:03:16.525Z,0
2017-12-27T02:04:16.762Z,0
2017-12-27T02:05:16.776Z,0
2017-12-27T02:06:16.229Z,0
2017-12-27T02:07:16.722Z,0
2017-12-27T02:08:16.203Z,0
2017-12-27T02:09:16.698Z,0
2017-12-27T02:10:16.702Z,0
2017-12-27T02:11:16.660Z,0
2017-12-27T02:12:16.385Z,0
2017-12-27T02:13:16.654Z,0
2017-12-27T02:14:16.624Z,0
2017-12-27T02:15:16.367Z,0
2017-12-27T02:16:16.609Z,0
2017-12-27T02:17:16.351Z,0
2017-12-27T02:18:16.303Z,0
2017-12-27T02:19:16.544Z,0
2017-12-27T02:20:16.521Z,0
2017-12-27T02:21:16.278Z,0
2017-12-27T02:22:16.503Z,0
2017-12-27T02:23:16.474Z,0
2017-12-27T02:24:16.463Z,0
2017-12-27T02:25:16.456Z,0
2017-12-27T02:26:16.187Z,0
2017-12-27T02:27:15.920Z,0
2017-12-27T02:28:16.146Z,0
2017-12-27T02:29:16.381Z,0
2017-12-27T02:30:16.113Z,0
2017-12-27T02:31:16.351Z,0
2017-12-27T02:32:16.101Z,0
2017-12-27T02:33:16.325Z,0
2017-12-27T02:34:16.064Z,0
2017-12-27T02:35:16.302Z,0
2017-12-27T02:36:16.290Z,0
2017-12-27T02:37:16.273Z,0
2017-12-27T02:38:16.266Z,0
2017-12-27T02:39:16.252Z,0
2017-12-27T02:40:16.226Z,0
2017-12-27T02:41:16.214Z,0
2017-12-27T02:42:16.179Z,0
2017-12-27T02:43:15.913Z,0
2017-12-27T02:44:16.170Z,0
2017-12-27T02:45:15.883Z,0
2017-12-27T02:46:15.874Z,0
2017-12-27T02:47:15.355Z,0
2017-12-27T02:48:15.841Z,0
2017-12-27T02:49:16.103Z,0
2017-12-27T02:50:15.819Z,0
2017-12-27T02:51:15.787Z,0
2017-12-27T02:52:15.802Z,0
2017-12-27T02:53:16.082Z,0
2017-12-27T02:54:15.998Z,0
2017-12-27T02:55:15.996Z,0
2017-12-27T02:56:15.986Z,0
2017-12-27T02:57:15.959Z,0
2017-12-27T02:58:15.433Z,0
2017-12-27T02:59:15.697Z,0
2017-12-27T03:00:15.655Z,0
2017-12-27T03:01:15.650Z,0
2017-12-27T03:02:15.867Z,0
2017-12-27T03:03:15.856Z,0
2017-12-27T03:04:15.581Z,0
2017-12-27T03:05:15.841Z,0
2017-12-27T03:06:15.572Z,0
2017-12-27T03:07:15.549Z,0
2017-12-27T03:08:15.796Z,0
2017-12-27T03:09:15.513Z,0
2017-12-27T03:10:15.777Z,0
2017-12-27T03:11:15.796Z,0
2017-12-27T03:12:15.465Z,0
2017-12-27T03:13:15.720Z,0
2017-12-27T03:14:15.698Z,0
2017-12-27T03:15:15.163Z,0
2017-12-27T03:16:15.680Z,0
2017-12-27T03:17:15.673Z,0
2017-12-27T03:18:15.383Z,0
2017-12-27T03:19:15.621Z,0
2017-12-27T03:20:15.085Z,0
2017-12-27T03:21:15.585Z,0
2017-12-27T03:22:15.300Z,0
2017-12-27T03:23:15.291Z,0
2017-12-27T03:24:15.542Z,0
2017-12-27T03:25:15.540Z,0
2017-12-27T03:26:15.511Z,0
2017-12-27T03:27:15.530Z,0
2017-12-27T03:28:15.255Z,0
2017-12-27T03:29:15.466Z,0
2017-12-27T03:30:14.941Z,0
2017-12-27T03:31:15.498Z,0
2017-12-27T03:32:15.413Z,0
2017-12-27T03:33:15.396Z,0
2017-12-27T03:34:15.398Z,0
2017-12-27T03:35:15.367Z,0
2017-12-27T03:36:14.853Z,0
2017-12-27T03:37:15.349Z,0
2017-12-27T03:38:15.077Z,0
2017-12-27T03:39:15.049Z,0
2017-12-27T03:40:15.302Z,0
2017-12-27T03:41:15.022Z,0
2017-12-27T03:42:15.265Z,0
2017-12-27T03:43:14.733Z,0
2017-12-27T03:44:15.253Z,0
2017-12-27T03:45:14.968Z,0
2017-12-27T03:46:15.194Z,0
2017-12-27T03:47:15.191Z,0
2017-12-27T03:48:14.911Z,0
2017-12-27T03:49:14.896Z,0
2017-12-27T03:50:14.877Z,0
2017-12-27T03:51:15.140Z,0
2017-12-27T03:52:15.119Z,0
2017-12-27T03:53:15.086Z,0
2017-12-27T03:54:15.089Z,0
2017-12-27T03:55:14.574Z,0
2017-12-27T03:56:15.091Z,0
2017-12-27T03:57:15.024Z,0
2017-12-27T03:58:14.768Z,0
2017-12-27T03:59:14.994Z,0
2017-12-27T04:00:14.726Z,0
2017-12-27T04:01:14.710Z,0
2017-12-27T04:02:14.700Z,0
2017-12-27T04:03:14.693Z,0
2017-12-27T04:04:14.731Z,0
2017-12-27T04:05:14.913Z,0
2017-12-27T04:06:14.632Z,0
2017-12-27T04:07:14.872Z,0
2017-12-27T04:08:14.617Z,0
2017-12-27T04:09:14.840Z,0
2017-12-27T04:10:14.850Z,0
2017-12-27T04:11:14.808Z,0
2017-12-27T04:12:14.531Z,0
2017-12-27T04:13:14.521Z,0
2017-12-27T04:14:14.251Z,0
2017-12-27T04:15:14.244Z,0
2017-12-27T04:16:14.473Z,0
2017-12-27T04:17:14.726Z,0
2017-12-27T04:18:14.443Z,0
2017-12-27T04:19:14.678Z,0
2017-12-27T04:20:14.423Z,0
2017-12-27T04:21:14.651Z,0
2017-12-27T04:22:14.648Z,0
2017-12-27T04:23:14.628Z,0
2017-12-27T04:24:14.611Z,0
2017-12-27T04:25:14.350Z,0
2017-12-27T04:26:14.598Z,0
2017-12-27T04:27:14.562Z,0
2017-12-27T04:28:14.296Z,0
2017-12-27T04:29:14.289Z,0
2017-12-27T04:30:14.013Z,0
2017-12-27T04:31:14.506Z,0
2017-12-27T04:32:14.225Z,0
2017-12-27T04:33:14.214Z,0
2017-12-27T04:34:14.213Z,0
2017-12-27T04:35:14.430Z,0
2017-12-27T04:36:14.437Z,0
2017-12-27T04:37:14.148Z,0
2017-12-27T04:38:14.408Z,0
2017-12-27T04:39:14.115Z,0
2017-12-27T04:40:14.350Z,0
2017-12-27T04:41:14.351Z,0
2017-12-27T04:42:14.342Z,0
2017-12-27T04:43:14.048Z,0
2017-12-27T04:44:14.041Z,0
2017-12-27T04:45:14.037Z,0
2017-12-27T04:46:13.752Z,0
2017-12-27T04:47:14.254Z,0
2017-12-27T04:48:13.479Z,0
2017-12-27T04:49:14.267Z,0
2017-12-27T04:50:13.950Z,0
2017-12-27T04:51:13.944Z,0
2017-12-27T04:52:13.667Z,0
2017-12-27T04:53:14.178Z,0
2017-12-27T04:54:13.628Z,0
2017-12-27T04:55:13.863Z,0
2017-12-27T04:56:14.114Z,0
2017-12-27T04:57:13.833Z,0
2017-12-27T04:58:14.074Z,0
2017-12-27T04:59:13.609Z,0
2017-12-27T05:00:13.804Z,0
2017-12-27T05:01:14.037Z,0
2017-12-27T05:02:13.767Z,0
2017-12-27T05:03:14.014Z,0
2017-12-27T05:04:13.758Z,0
2017-12-27T05:05:13.974Z,0
2017-12-27T05:06:13.716Z,0
2017-12-27T05:07:13.937Z,0
2017-12-27T05:08:13.998Z,0
2017-12-27T05:09:13.645Z,0
2017-12-27T05:10:13.896Z,0
2017-12-27T05:11:13.897Z,0
2017-12-27T05:12:13.600Z,0
2017-12-27T05:13:13.851Z,0
2017-12-27T05:14:13.838Z,0
2017-12-27T05:15:13.311Z,0
2017-12-27T05:16:13.549Z,0
2017-12-27T05:17:13.806Z,0
2017-12-27T05:18:13.296Z,0
2017-12-27T05:19:13.767Z,0
2017-12-27T05:20:13.483Z,0
2017-12-27T05:21:13.729Z,0
2017-12-27T05:22:13.201Z,0
2017-12-27T05:23:13.725Z,0
2017-12-27T05:24:13.686Z,0
2017-12-27T05:25:13.409Z,0
2017-12-27T05:26:13.664Z,0
2017-12-27T05:27:13.646Z,0
2017-12-27T05:28:13.633Z,0
2017-12-27T05:29:13.624Z,0
2017-12-27T05:30:13.337Z,0
2017-12-27T05:31:13.309Z,0
2017-12-27T05:32:13.317Z,0
2017-12-27T05:33:13.559Z,0
2017-12-27T05:34:13.532Z,0
2017-12-27T05:35:13.529Z,0
2017-12-27T05:36:13.255Z,0
2017-12-27T05:37:13.500Z,0
2017-12-27T05:38:13.471Z,0
2017-12-27T05:39:13.191Z,0
2017-12-27T05:40:13.184Z,0
2017-12-27T05:41:13.438Z,0
2017-12-27T05:42:13.151Z,0
2017-12-27T05:43:13.381Z,0
2017-12-27T05:44:13.121Z,0
2017-12-27T05:45:12.845Z,0
2017-12-27T05:46:13.340Z,0
2017-12-27T05:47:13.341Z,0
2017-12-27T05:48:13.041Z,0
2017-12-27T05:49:13.307Z,0
2017-12-27T05:50:13.295Z,0
2017-12-27T05:51:13.012Z,0
2017-12-27T05:52:12.748Z,0
2017-12-27T05:53:12.998Z,0
2017-12-27T05:54:13.246Z,0
2017-12-27T05:55:12.434Z,0
2017-12-27T05:56:12.677Z,0
2017-12-27T05:57:13.166Z,0
2017-12-27T05:58:12.632Z,0
2017-12-27T05:59:13.142Z,0
2017-12-27T06:00:13.118Z,0
2017-12-27T06:01:13.096Z,0
2017-12-27T06:02:12.836Z,0
2017-12-27T06:03:13.076Z,0
2017-12-27T06:04:12.809Z,0
2017-12-27T06:05:12.788Z,0
2017-12-27T06:06:12.779Z,0
2017-12-27T06:07:12.777Z,0
2017-12-27T06:08:13.043Z,0
2017-12-27T06:09:12.767Z,0
2017-12-27T06:10:12.713Z,0
2017-12-27T06:11:12.439Z,0
2017-12-27T06:12:12.936Z,0
2017-12-27T06:13:12.927Z,0
2017-12-27T06:14:12.899Z,0
2017-12-27T06:15:12.884Z,0
2017-12-27T06:16:12.619Z,0
2017-12-27T06:17:12.858Z,0
2017-12-27T06:18:12.845Z,0
2017-12-27T06:19:12.817Z,0
2017-12-27T06:20:12.046Z,0
2017-12-27T06:21:12.282Z,0
2017-12-27T06:22:12.772Z,0
2017-12-27T06:23:12.257Z,0
2017-12-27T06:24:11.996Z,0
2017-12-27T06:25:12.776Z,0
2017-12-27T06:26:12.722Z,0
2017-12-27T06:27:12.458Z,0
2017-12-27T06:28:12.688Z,0
2017-12-27T06:29:12.423Z,0
2017-12-27T06:30:12.411Z,0
2017-12-27T06:31:12.393Z,0
2017-12-27T06:32:12.375Z,0
2017-12-27T06:33:12.366Z,0
2017-12-27T06:34:12.584Z,0
2017-12-27T06:35:12.319Z,0
2017-12-27T06:36:12.572Z,0
2017-12-27T06:37:12.279Z,0
2017-12-27T06:38:12.293Z,0
2017-12-27T06:39:12.524Z,0
2017-12-27T06:40:12.506Z,0
2017-12-27T06:41:12.500Z,0
2017-12-27T06:42:12.209Z,0
2017-12-27T06:43:12.192Z,0
2017-12-27T06:44:12.458Z,0
2017-12-27T06:45:12.450Z,0
2017-12-27T06:46:11.958Z,0
2017-12-27T06:47:12.145Z,0
2017-12-27T06:48:12.393Z,0
2017-12-27T06:49:11.858Z,0
2017-12-27T06:50:12.081Z,0
2017-12-27T06:51:12.322Z,0
2017-12-27T06:52:12.320Z,0
2017-12-27T06:53:12.297Z,0
2017-12-27T06:54:12.294Z,0
2017-12-27T06:55:12.006Z,0
2017-12-27T06:56:12.243Z,0
2017-12-27T06:57:12.232Z,0
2017-12-27T06:58:12.224Z,0
2017-12-27T06:59:11.942Z,0
2017-12-27T07:00:12.183Z,0
2017-12-27T07:01:12.179Z,5
2017-12-27T07:02:11.642Z,5
2017-12-27T07:03:12.140Z,5
2017-12-27T07:04:11.886Z,5
2017-12-27T07:05:11.342Z,5
2017-12-27T07:06:12.111Z,5
2017-12-27T07:07:11.573Z,5
2017-12-27T07:08:12.068Z,5
2017-12-27T07:09:11.799Z,5
2017-12-27T07:10:11.792Z,5
2017-12-27T07:11:11.769Z,10
2017-12-27T07:12:11.994Z,10
2017-12-27T07:13:11.476Z,10
2017-12-27T07:14:11.711Z,10
2017-12-27T07:15:12.217Z,10
2017-12-27T07:16:11.966Z,10
2017-12-27T07:17:11.681Z,15
2017-12-27T07:18:11.658Z,15
2017-12-27T07:19:11.899Z,15
2017-12-27T07:20:11.641Z,15
2017-12-27T07:21:11.616Z,15
2017-12-27T07:22:11.860Z,20
2017-12-27T07:23:11.322Z,20
2017-12-27T07:24:11.578Z,20
2017-12-27T07:25:11.549Z,20
2017-12-27T07:26:11.580Z,25
2017-12-27T07:27:11.253Z,25
2017-12-27T07:28:11.253Z,25
2017-12-27T07:29:11.765Z,30
2017-12-27T07:30:11.717Z,30
2017-12-27T07:31:11.753Z,30
2017-12-27T07:32:11.704Z,30
2017-12-27T07:33:11.730Z,30
2017-12-27T07:34:11.663Z,35
2017-12-27T07:35:11.656Z,35
2017-12-27T07:36:11.441Z,35
2017-12-27T07:37:11.612Z,35
2017-12-27T07:38:11.603Z,35
2017-12-27T07:39:11.588Z,40
2017-12-27T07:40:11.587Z,40
2017-12-27T07:41:11.299Z,40
2017-12-27T07:42:11.537Z,45
2017-12-27T07:43:11.530Z,45
2017-12-27T07:44:11.005Z,45
2017-12-27T07:45:11.241Z,45
2017-12-27T07:46:11.491Z,45
2017-12-27T07:47:11.476Z,50
2017-12-27T07:48:11.457Z,50
2017-12-27T07:49:11.452Z,50
2017-12-27T07:50:11.181Z,55
2017-12-27T07:51:11.391Z,55
2017-12-27T07:52:11.389Z,55
2017-12-27T07:53:11.103Z,55
2017-12-27T07:54:11.366Z,60
2017-12-27T07:55:11.346Z,60
2017-12-27T07:56:11.335Z,60
2017-12-27T07:57:11.299Z,60
2017-12-27T07:58:11.293Z,60
2017-12-27T07:59:11.280Z,60
2017-12-27T08:00:11.266Z,65
2017-12-27T08:01:11.245Z,65
2017-12-27T08:02:11.252Z,65
2017-12-27T08:03:11.226Z,65
2017-12-27T08:04:11.205Z,65
2017-12-27T08:05:11.225Z,70
2017-12-27T08:06:11.170Z,70
2017-12-27T08:07:11.156Z,70
2017-12-27T08:08:10.879Z,75
2017-12-27T08:09:11.139Z,75
2017-12-27T08:10:11.118Z,75
2017-12-27T08:11:11.142Z,75
2017-12-27T08:12:11.089Z,75
2017-12-27T08:13:11.065Z,80
2017-12-27T08:14:10.809Z,80
2017-12-27T08:15:11.133Z,80
2017-12-27T08:16:10.760Z,80
2017-12-27T08:17:10.742Z,80
2017-12-27T08:18:10.996Z,80
2017-12-27T08:19:10.984Z,80
2017-12-27T08:20:10.704Z,85
2017-12-27T08:21:10.948Z,85
2017-12-27T08:22:10.420Z,85
2017-12-27T08:23:10.934Z,85
2017-12-27T08:24:10.948Z,85
2017-12-27T08:25:10.636Z,90
2017-12-27T08:26:10.626Z,90
2017-12-27T08:27:10.627Z,90
2017-12-27T08:28:10.839Z,90
2017-12-27T08:29:10.564Z,95
2017-12-27T08:30:10.805Z,95
2017-12-27T08:31:10.537Z,95
2017-12-27T08:32:10.784Z,95
2017-12-27T08:33:10.768Z,100
2017-12-27T08:34:10.743Z,100
2017-12-27T08:35:10.731Z,100
2017-12-27T08:36:10.718Z,105
2017-12-27T08:37:10.460Z,105
2017-12-27T08:38:10.433Z,105
2017-12-27T08:39:10.684Z,105
2017-12-27T08:40:10.475Z,105
2017-12-27T08:41:10.398Z,110
2017-12-27T08:42:10.378Z,110
2017-12-27T08:43:10.623Z,110
2017-12-27T08:44:10.353Z,105
2017-12-27T08:45:10.601Z,105
2017-12-27T08:46:10.322Z,105
2017-12-27T08:47:10.581Z,105
2017-12-27T08:48:10.564Z,110
2017-12-27T08:49:10.536Z,110
2017-12-27T08:50:10.000Z,110
2017-12-27T08:51:10.496Z,110
2017-12-27T08:52:10.238Z,110
2017-12-27T08:53:10.494Z,110
2017-12-27T08:54:10.472Z,115
2017-12-27T08:55:10.464Z,115
2017-12-27T08:56:10.434Z,120
2017-12-27T08:57:10.184Z,125
2017-12-27T08:58:10.414Z,125
2017-12-27T08:59:10.134Z,130
2017-12-27T09:00:09.892Z,135
2017-12-27T09:01:10.361Z,140
2017-12-27T09:02:10.356Z,140
2017-12-27T09:03:10.330Z,145
2017-12-27T09:04:10.088Z,150
2017-12-27T09:05:10.067Z,150
2017-12-27T09:06:09.776Z,150
2017-12-27T09:07:10.033Z,150
2017-12-27T09:08:10.006Z,150
2017-12-27T09:09:10.261Z,145
2017-12-27T09:10:09.990Z,145
2017-12-27T09:11:10.229Z,145
2017-12-27T09:12:10.230Z,145
2017-12-27T09:13:10.198Z,145
2017-12-27T09:14:10.206Z,145
2017-12-27T09:15:09.656Z,145
2017-12-27T09:16:09.661Z,145
2017-12-27T09:17:10.152Z,145
2017-12-27T09:18:09.891Z,145
2017-12-27T09:19:09.878Z,145
2017-12-27T09:20:10.101Z,145
2017-12-27T09:21:09.844Z,140
2017-12-27T09:22:09.557Z,140
2017-12-27T09:23:10.080Z,135
2017-12-27T09:24:09.824Z,135
2017-12-27T09:25:10.031Z,130
2017-12-27T09:26:09.781Z,130
2017-12-27T09:27:09.748Z,130
2017-12-27T09:28:10.002Z,125
2017-12-27T09:29:09.994Z,125
2017-12-27T09:30:09.449Z,120
2017-12-27T09:31:09.719Z,120
2017-12-27T09:32:09.696Z,120
2017-12-27T09:33:09.926Z,120
2017-12-27T09:34:09.407Z,120
2017-12-27T09:35:09.653Z,120
2017-12-27T09:36:09.881Z,125
2017-12-27T09:37:09.615Z,125
2017-12-27T09:38:09.604Z,130
2017-12-27T09:39:09.606Z,130
2017-12-27T09:40:09.580Z,135
2017-12-27T09:41:09.576Z,140
2017-12-27T09:42:09.561Z,145
2017-12-27T09:43:09.793Z,145
2017-12-27T09:44:09.843Z,150
2017-12-27T09:45:09.785Z,150
2017-12-27T09:46:09.749Z,155
2017-12-27T09:47:09.752Z,160
2017-12-27T09:48:09.732Z,170
2017-12-27T09:49:09.730Z,175
2017-12-27T09:50:09.703Z,180
2017-12-27T09:51:09.703Z,185
2017-12-27T09:52:09.668Z,190
2017-12-27T09:53:09.406Z,195
2017-12-27T09:54:09.659Z,200
2017-12-27T09:55:09.137Z,200
2017-12-27T09:56:09.368Z,200
2017-12-27T09:57:09.618Z,205
2017-12-27T09:58:09.624Z,205
2017-12-27T09:59:09.325Z,205
2017-12-27T10:00:09.585Z,200
2017-12-27T10:01:09.057Z,200
2017-12-27T10:02:09.565Z,200
2017-12-27T10:03:09.552Z,200
2017-12-27T10:04:09.259Z,195
2017-12-27T10:05:09.525Z,190
2017-12-27T10:06:08.992Z,185
2017-12-27T10:07:09.496Z,180
2017-12-27T10:08:09.210Z,180
2017-12-27T10:09:09.475Z,175
2017-12-27T10:10:09.483Z,170
2017-12-27T10:11:08.918Z,170
2017-12-27T10:12:09.164Z,165
2017-12-27T10:13:09.411Z,165
2017-12-27T10:14:09.387Z,165
2017-12-27T10:15:09.124Z,165
2017-12-27T10:16:09.118Z,165
2017-12-27T10:17:09.099Z,165
2017-12-27T10:18:09.091Z,165
2017-12-27T10:19:08.829Z,165
2017-12-27T10:20:09.059Z,165
2017-12-27T10:21:09.320Z,160
2017-12-27T10:22:08.779Z,160
2017-12-27T10:23:09.286Z,165
2017-12-27T10:24:09.265Z,170
2017-12-27T10:25:09.007Z,170
2017-12-27T10:26:08.986Z,170
2017-12-27T10:27:09.264Z,165
2017-12-27T10:28:09.232Z,165
2017-12-27T10:29:09.200Z,160
2017-12-27T10:30:08.946Z,155
2017-12-27T10:31:09.228Z,155
2017-12-27T10:32:09.173Z,160
2017-12-27T10:33:09.177Z,170
2017-12-27T10:34:08.633Z,180
2017-12-27T10:35:08.891Z,185
2017-12-27T10:36:08.882Z,185
2017-12-27T10:37:08.600Z,190
2017-12-27T10:38:08.852Z,185
2017-12-27T10:39:09.084Z,180
2017-12-27T10:40:08.829Z,185
2017-12-27T10:41:08.806Z,190
2017-12-27T10:42:09.050Z,190
2017-12-27T10:43:09.026Z,190
2017-12-27T10:44:09.022Z,190
2017-12-27T10:45:08.753Z,190
2017-12-27T10:46:09.014Z,195
2017-12-27T10:47:08.720Z,185
2017-12-27T10:48:08.996Z,185
2017-12-27T10:49:08.968Z,180
2017-12-27T10:50:08.744Z,185
2017-12-27T10:51:08.950Z,185
2017-12-27T10:52:08.941Z,190
2017-12-27T10:53:08.679Z,190
2017-12-27T10:54:08.897Z,190
2017-12-27T10:55:08.907Z,195
2017-12-27T10:56:08.631Z,195
2017-12-27T10:57:08.610Z,200
2017-12-27T10:58:08.867Z,200
2017-12-27T10:59:08.578Z,200
2017-12-27T11:00:08.830Z,200
2017-12-27T11:01:08.303Z,200
2017-12-27T11:02:08.550Z,200
2017-12-27T11:03:08.545Z,195
2017-12-27T11:04:08.785Z,200
2017-12-27T11:05:08.790Z,195
2017-12-27T11:06:08.517Z,195
2017-12-27T11:07:08.493Z,190
2017-12-27T11:08:08.496Z,190
2017-12-27T11:09:08.743Z,195
2017-12-27T11:10:08.196Z,190
2017-12-27T11:11:08.707Z,190
2017-12-27T11:12:08.197Z,185
2017-12-27T11:13:08.195Z,185
2017-12-27T11:14:08.670Z,180
2017-12-27T11:15:08.751Z,180
2017-12-27T11:16:08.400Z,180
2017-12-27T11:17:08.637Z,180
2017-12-27T11:18:08.636Z,180
2017-12-27T11:19:08.104Z,180
2017-12-27T11:20:08.606Z,180
2017-12-27T11:21:08.346Z,175
2017-12-27T11:22:08.335Z,170
2017-12-27T11:23:08.339Z,165
2017-12-27T11:24:08.596Z,165
2017-12-27T11:25:08.315Z,160
2017-12-27T11:26:08.551Z,165
2017-12-27T11:27:08.304Z,165
2017-12-27T11:28:08.276Z,170
2017-12-27T11:29:08.569Z,175
2017-12-27T11:30:08.252Z,180
2017-12-27T11:31:07.728Z,180
2017-12-27T11:32:08.222Z,180
2017-12-27T11:33:08.203Z,175
2017-12-27T11:34:08.465Z,165
2017-12-27T11:35:07.937Z,155
2017-12-27T11:36:08.462Z,155
2017-12-27T11:37:08.431Z,150
2017-12-27T11:38:08.497Z,145
2017-12-27T11:39:08.403Z,150
2017-12-27T11:40:08.387Z,150
2017-12-27T11:41:08.402Z,155
2017-12-27T11:42:08.374Z,155
2017-12-27T11:43:08.360Z,150
2017-12-27T11:44:07.848Z,150
2017-12-27T11:45:08.338Z,145
2017-12-27T11:46:08.326Z,145
2017-12-27T11:47:08.313Z,140
2017-12-27T11:48:08.032Z,140
2017-12-27T11:49:08.034Z,140
2017-12-27T11:50:08.283Z,140
2017-12-27T11:51:08.278Z,145
2017-12-27T11:52:08.272Z,150
2017-12-27T11:53:08.040Z,155
2017-12-27T11:54:07.978Z,150
2017-12-27T11:55:07.964Z,155
2017-12-27T11:56:07.950Z,155
2017-12-27T11:57:08.210Z,155
2017-12-27T11:58:08.196Z,160
2017-12-27T11:59:07.924Z,160
2017-12-27T12:00:07.914Z,165
2017-12-27T12:01:07.908Z,170
2017-12-27T12:02:07.642Z,180
2017-12-27T12:03:08.141Z,180
2017-12-27T12:04:08.141Z,180
2017-12-27T12:05:07.643Z,175
2017-12-27T12:06:08.107Z,175
2017-12-27T12:07:07.839Z,170
2017-12-27T12:08:08.101Z,170
2017-12-27T12:09:07.812Z,165
2017-12-27T12:10:08.058Z,165
2017-12-27T12:11:08.066Z,170
2017-12-27T12:12:08.095Z,170
2017-12-27T12:13:07.780Z,175
2017-12-27T12:14:08.022Z,175
2017-12-27T12:15:08.024Z,175
2017-12-27T12:16:07.734Z,175
2017-12-27T12:17:07.730Z,175
2017-12-27T12:18:07.723Z,175
2017-12-27T12:19:07.955Z,180
2017-12-27T12:20:07.447Z,180
2017-12-27T12:21:07.942Z,185
2017-12-27T12:22:07.196Z,185
2017-12-27T12:23:07.940Z,185
2017-12-27T12:24:07.932Z,185
2017-12-27T12:25:07.894Z,185
2017-12-27T12:26:07.885Z,180
2017-12-27T12:27:07.607Z,180
2017-12-27T12:28:07.869Z,175
2017-12-27T12:29:07.591Z,175
2017-12-27T12:30:07.064Z,170
2017-12-27T12:31:07.591Z,165
2017-12-27T12:32:07.814Z,160
2017-12-27T12:33:07.804Z,160
2017-12-27T12:34:07.791Z,155
2017-12-27T12:35:07.780Z,150
2017-12-27T12:36:07.777Z,150
2017-12-27T12:37:07.755Z,150
2017-12-27T12:38:07.550Z,150
2017-12-27T12:39:07.758Z,145
2017-12-27T12:40:07.487Z,145
2017-12-27T12:41:07.719Z,150
2017-12-27T12:42:07.722Z,145
2017-12-27T12:43:07.444Z,145
2017-12-27T12:44:07.675Z,145
2017-12-27T12:45:07.677Z,140
2017-12-27T12:46:07.645Z,135
2017-12-27T12:47:07.660Z,135
2017-12-27T12:48:07.636Z,130
2017-12-27T12:49:07.648Z,125
2017-12-27T12:50:07.126Z,120
2017-12-27T12:51:07.610Z,115
2017-12-27T12:52:07.592Z,115
2017-12-27T12:53:07.068Z,110
2017-12-27T12:54:07.618Z,110
2017-12-27T12:55:07.292Z,105
2017-12-27T12:56:07.560Z,105
2017-12-27T12:57:07.544Z,100
2017-12-27T12:58:07.267Z,100
2017-12-27T12:59:07.618Z,100
2017-12-27T13:00:07.509Z,105
2017-12-27T13:01:07.516Z,105
2017-12-27T13:02:07.503Z,105
2017-12-27T13:03:07.467Z,105
2017-12-27T13:04:06.944Z,110
2017-12-27T13:05:07.203Z,110
2017-12-27T13:06:06.922Z,110
2017-12-27T13:07:07.424Z,110
2017-12-27T13:08:07.182Z,110
2017-12-27T13:09:07.445Z,105
2017-12-27T13:10:07.144Z,100
2017-12-27T13:11:07.125Z,95
2017-12-27T13:12:07.390Z,95
2017-12-27T13:13:07.117Z,90
2017-12-27T13:14:07.173Z,90
2017-12-27T13:15:07.068Z,85
2017-12-27T13:16:07.326Z,85
2017-12-27T13:17:07.338Z,85
2017-12-27T13:18:07.321Z,85
2017-12-27T13:19:07.292Z,90
2017-12-27T13:20:07.275Z,90
2017-12-27T13:21:07.261Z,90
2017-12-27T13:22:07.006Z,90
2017-12-27T13:23:07.002Z,85
2017-12-27T13:24:07.236Z,85
2017-12-27T13:25:07.252Z,85
2017-12-27T13:26:06.955Z,85
2017-12-27T13:27:07.197Z,85
2017-12-27T13:28:06.931Z,85
2017-12-27T13:29:07.177Z,85
2017-12-27T13:30:07.216Z,80
2017-12-27T13:31:07.179Z,80
2017-12-27T13:32:06.902Z,80
2017-12-27T13:33:07.134Z,80
2017-12-27T13:34:07.173Z,80
2017-12-27T13:35:07.186Z,75
2017-12-27T13:36:07.123Z,75
2017-12-27T13:37:07.103Z,70
2017-12-27T13:38:07.105Z,70
2017-12-27T13:39:07.061Z,65
2017-12-27T13:40:07.064Z,65
2017-12-27T13:41:07.040Z,65
2017-12-27T13:42:07.036Z,60
2017-12-27T13:43:07.020Z,60
2017-12-27T13:44:06.758Z,60
2017-12-27T13:45:06.988Z,60
2017-12-27T13:46:06.731Z,60
2017-12-27T13:47:06.998Z,60
2017-12-27T13:48:06.958Z,60
2017-12-27T13:49:06.737Z,55
2017-12-27T13:50:06.933Z,55
2017-12-27T13:51:06.671Z,50
2017-12-27T13:52:06.904Z,50
2017-12-27T13:53:06.400Z,50
2017-12-27T13:54:06.638Z,50
2017-12-27T13:55:06.886Z,50
2017-12-27T13:56:06.628Z,50
2017-12-27T13:57:06.341Z,50
2017-12-27T13:58:06.597Z,45
2017-12-27T13:59:06.572Z,45
2017-12-27T14:00:06.861Z,45
2017-12-27T14:01:06.543Z,45
2017-12-27T14:02:06.546Z,40
2017-12-27T14:03:06.792Z,40
2017-12-27T14:04:06.524Z,40
2017-12-27T14:05:06.756Z,35
2017-12-27T14:06:06.749Z,35
2017-12-27T14:07:06.501Z,35
2017-12-27T14:08:06.733Z,35
2017-12-27T14:09:06.739Z,35
2017-12-27T14:10:06.451Z,35
2017-12-27T14:11:06.450Z,30
2017-12-27T14:12:06.413Z,30
2017-12-27T14:13:06.155Z,30
2017-12-27T14:14:06.410Z,30
2017-12-27T14:15:06.749Z,30
2017-12-27T14:16:06.370Z,25
2017-12-27T14:17:06.349Z,25
2017-12-27T14:18:06.628Z,25
2017-12-27T14:19:06.592Z,25
2017-12-27T14:20:06.615Z,25
2017-12-27T14:21:06.631Z,25